logo
Search for airport 
image banner adimage banner adimage banner ad
image banner ad

CA148 - Minto

Located in , Canada

ICAO - , IATA -

Data provided by Airmate  

General information

Coordinates: N62°36'0" W136°52'0"
Elevation is 1561 feet MSL.
 
View others Airports in Yukon Territory

Operational data

Special qualification required
Current time UTC:
Current local time:
Weather at : - ( 0 km )
METAR: KQFX 141710Z AUTO 15001KT 9999 OVC049 23/21 A2988 RMK A02 TSNO
View NOTAMs / SUP AIP / TFR affecting this airport [VIEW]
Communications frequencies: [VIEW]

Runways:

Airport contact information

Address: Canada

Satellite view of CA148